createdAt,value
2023-03-05T00:01:17.614Z,100.00
2023-03-05T00:03:45.409Z,100.00
2023-03-05T00:06:12.793Z,100.00
2023-03-05T00:08:39.928Z,100.00
2023-03-05T00:11:09.188Z,100.00
2023-03-05T00:13:38.684Z,100.00
2023-03-05T00:16:07.431Z,100.00
2023-03-05T00:18:35.201Z,100.00
2023-03-05T00:21:02.548Z,100.00
2023-03-05T00:23:29.614Z,100.00
2023-03-05T00:25:56.888Z,100.00
2023-03-05T00:28:23.910Z,100.00
2023-03-05T00:30:50.808Z,100.00
2023-03-05T00:33:19.132Z,100.00
2023-03-05T00:35:46.585Z,100.00
2023-03-05T00:38:14.758Z,100.00
2023-03-05T00:40:43.134Z,100.00
2023-03-05T00:43:12.145Z,100.00
2023-03-05T00:45:40.958Z,100.00
2023-03-05T00:48:09.630Z,100.00
2023-03-05T00:50:37.843Z,100.00
2023-03-05T00:53:04.856Z,100.00
2023-03-05T00:55:32.460Z,100.00
2023-03-05T00:57:59.624Z,100.00
2023-03-05T01:00:26.932Z,100.00
2023-03-05T01:02:54.512Z,100.00
2023-03-05T01:05:23.441Z,100.00
2023-03-05T01:07:53.233Z,100.00
2023-03-05T01:10:20.211Z,100.00
2023-03-05T01:12:47.355Z,100.00
2023-03-05T01:15:14.743Z,100.00
2023-03-05T01:17:41.800Z,100.00
2023-03-05T01:20:14.580Z,100.00
2023-03-05T01:22:41.790Z,100.00
2023-03-05T01:25:09.124Z,100.00
2023-03-05T01:27:37.688Z,100.00
2023-03-05T01:30:05.477Z,100.00
2023-03-05T01:32:35.844Z,100.00
2023-03-05T01:35:03.591Z,100.00
2023-03-05T01:37:30.891Z,100.00
2023-03-05T01:39:57.928Z,100.00
2023-03-05T01:42:27.660Z,100.00
2023-03-05T01:45:07.367Z,100.00
2023-03-05T01:47:34.438Z,100.00
2023-03-05T01:50:02.359Z,100.00
2023-03-05T01:52:31.582Z,100.00
2023-03-05T01:55:00.435Z,100.00
2023-03-05T01:57:38.176Z,100.00
2023-03-05T02:00:14.087Z,100.00
2023-03-05T02:02:43.405Z,100.00
2023-03-05T02:05:26.606Z,100.00
2023-03-05T02:07:57.954Z,100.00
2023-03-05T02:10:38.667Z,100.00
2023-03-05T02:13:08.910Z,100.00
2023-03-05T02:15:36.049Z,100.00
2023-03-05T02:18:03.339Z,100.00
2023-03-05T02:20:44.841Z,100.00
2023-03-05T02:23:12.007Z,100.00
2023-03-05T02:25:40.482Z,100.00
2023-03-05T02:28:22.554Z,100.00
2023-03-05T02:30:49.681Z,100.00
2023-03-05T02:33:16.990Z,100.00
2023-03-05T02:35:45.744Z,100.00
2023-03-05T02:38:13.632Z,100.00
2023-03-05T02:40:40.732Z,100.00
2023-03-05T02:43:08.161Z,100.00
2023-03-05T02:45:35.216Z,100.00
2023-03-05T02:48:02.105Z,100.00
2023-03-05T02:50:29.408Z,100.00
2023-03-05T02:52:56.392Z,100.00
2023-03-05T02:55:23.649Z,100.00
2023-03-05T02:57:50.579Z,100.00
2023-03-05T03:00:18.075Z,100.00
2023-03-05T03:02:45.019Z,100.00
2023-03-05T03:05:12.014Z,100.00
2023-03-05T03:07:39.260Z,100.00
2023-03-05T03:10:06.835Z,100.00
2023-03-05T03:12:38.859Z,100.00
2023-03-05T03:15:07.057Z,100.00
2023-03-05T03:17:36.903Z,100.00
2023-03-05T03:20:04.752Z,100.00
2023-03-05T03:22:31.940Z,100.00
2023-03-05T03:24:59.914Z,100.00
2023-03-05T03:27:27.447Z,100.00
2023-03-05T03:29:54.609Z,100.00
2023-03-05T03:32:21.619Z,100.00
2023-03-05T03:34:48.563Z,100.00
2023-03-05T03:37:15.849Z,100.00
2023-03-05T03:39:42.905Z,100.00
2023-03-05T03:42:09.929Z,100.00
2023-03-05T03:44:36.885Z,100.00
2023-03-05T03:47:04.117Z,100.00
2023-03-05T03:49:31.190Z,100.00
2023-03-05T03:51:59.191Z,100.00
2023-03-05T03:54:26.122Z,100.00
2023-03-05T03:56:53.654Z,100.00
2023-03-05T03:59:20.862Z,100.00
2023-03-05T04:01:47.928Z,100.00
2023-03-05T04:04:14.934Z,100.00
2023-03-05T04:06:42.511Z,100.00
2023-03-05T04:09:13.380Z,100.00
2023-03-05T04:11:41.057Z,100.00
2023-03-05T04:14:08.061Z,100.00
2023-03-05T04:16:36.979Z,100.00
2023-03-05T04:19:04.088Z,100.00
2023-03-05T04:21:31.076Z,100.00
2023-03-05T04:23:58.164Z,100.00
2023-03-05T04:26:25.248Z,100.00
2023-03-05T04:28:52.678Z,100.00
2023-03-05T04:31:23.229Z,100.00
2023-03-05T04:33:50.665Z,100.00
2023-03-05T04:36:17.580Z,100.00
2023-03-05T04:38:46.274Z,100.00
2023-03-05T04:41:13.400Z,100.00
2023-03-05T04:43:40.282Z,100.00
2023-03-05T04:46:07.333Z,100.00
2023-03-05T04:48:34.508Z,100.00
2023-03-05T04:51:02.221Z,100.00
2023-03-05T04:53:30.030Z,100.00
2023-03-05T04:56:01.038Z,100.00
2023-03-05T04:58:28.442Z,100.00
2023-03-05T05:01:00.668Z,100.00
2023-03-05T05:03:27.922Z,100.00
2023-03-05T05:05:55.881Z,100.00
2023-03-05T05:08:23.332Z,100.00
2023-03-05T05:11:02.309Z,100.00
2023-03-05T05:13:30.382Z,100.00
2023-03-05T05:15:57.689Z,100.00
2023-03-05T05:18:24.927Z,100.00
2023-03-05T05:20:52.784Z,100.00
2023-03-05T05:23:21.394Z,100.00
2023-03-05T05:25:56.463Z,100.00
2023-03-05T05:28:23.449Z,100.00
2023-03-05T05:30:50.398Z,99.87
2023-03-05T05:33:17.340Z,99.19
2023-03-05T05:35:44.731Z,98.80
2023-03-05T05:38:12.025Z,98.25
2023-03-05T05:40:39.792Z,98.21
2023-03-05T05:43:06.926Z,98.49
2023-03-05T05:45:34.256Z,98.48
2023-03-05T05:48:01.950Z,98.19
2023-03-05T05:50:29.158Z,97.42
2023-03-05T05:52:56.659Z,97.16
2023-03-05T05:55:23.923Z,96.84
2023-03-05T05:58:10.860Z,95.58
2023-03-05T06:00:44.087Z,94.33
2023-03-05T06:03:12.221Z,94.16
2023-03-05T06:05:43.978Z,93.71
2023-03-05T06:08:12.619Z,93.83
2023-03-05T06:10:39.684Z,93.93
2023-03-05T06:13:13.918Z,93.60
2023-03-05T06:15:41.763Z,93.70
2023-03-05T06:18:09.098Z,93.64
2023-03-05T06:20:37.598Z,93.69
2023-03-05T06:23:06.916Z,93.64
2023-03-05T06:25:34.315Z,93.49
2023-03-05T06:28:01.367Z,93.38
2023-03-05T06:30:29.059Z,92.63
2023-03-05T06:32:56.073Z,92.69
2023-03-05T06:35:24.624Z,91.84
2023-03-05T06:37:53.012Z,91.59
2023-03-05T06:40:20.274Z,91.69
2023-03-05T06:42:47.739Z,91.21
2023-03-05T06:45:15.299Z,91.28
2023-03-05T06:47:42.754Z,90.90
2023-03-05T06:50:10.473Z,90.89
2023-03-05T06:52:40.459Z,90.21
2023-03-05T06:55:11.316Z,90.27
2023-03-05T06:57:39.425Z,89.85
2023-03-05T07:00:11.263Z,89.83
2023-03-05T07:02:38.819Z,89.51
2023-03-05T07:05:06.649Z,88.92
2023-03-05T07:07:36.137Z,88.74
2023-03-05T07:10:03.779Z,88.26
2023-03-05T07:12:34.445Z,87.35
2023-03-05T07:15:01.489Z,86.87
2023-03-05T07:17:28.603Z,86.67
2023-03-05T07:19:55.568Z,86.12
2023-03-05T07:22:23.952Z,85.57
2023-03-05T07:24:54.652Z,84.74
2023-03-05T07:27:25.067Z,84.26
2023-03-05T07:29:51.969Z,84.36
2023-03-05T07:32:18.992Z,84.32
2023-03-05T07:34:45.855Z,83.43
2023-03-05T07:37:13.486Z,82.98
2023-03-05T07:39:42.801Z,82.44
2023-03-05T07:42:15.203Z,82.36
2023-03-05T07:44:52.322Z,81.70
2023-03-05T07:47:19.699Z,81.19
2023-03-05T07:49:46.885Z,80.40
2023-03-05T07:52:15.166Z,79.80
2023-03-05T07:54:42.686Z,78.91
2023-03-05T07:57:10.619Z,78.40
2023-03-05T07:59:37.892Z,77.08
2023-03-05T08:02:05.287Z,75.87
2023-03-05T08:04:32.530Z,72.58
2023-03-05T08:06:59.757Z,71.47
2023-03-05T08:09:28.690Z,70.97
2023-03-05T08:11:59.894Z,70.22
2023-03-05T08:14:28.428Z,68.96
2023-03-05T08:16:55.633Z,67.14
2023-03-05T08:19:22.832Z,66.82
2023-03-05T08:21:49.807Z,66.90
2023-03-05T08:24:16.847Z,64.90
2023-03-05T08:26:45.706Z,63.59
2023-03-05T08:29:12.674Z,63.21
2023-03-05T08:31:44.850Z,63.36
2023-03-05T08:34:12.069Z,63.23
2023-03-05T08:36:39.024Z,60.95
2023-03-05T08:39:08.044Z,58.42
2023-03-05T08:41:36.035Z,57.62
2023-03-05T08:44:04.288Z,57.31
2023-03-05T08:46:32.051Z,57.07
2023-03-05T08:48:59.603Z,56.70
2023-03-05T08:51:26.984Z,55.74
2023-03-05T08:53:55.229Z,54.11
2023-03-05T08:56:25.754Z,53.43
2023-03-05T08:58:52.936Z,52.95
2023-03-05T09:01:20.440Z,52.42
2023-03-05T09:03:47.891Z,52.38
2023-03-05T09:06:15.024Z,51.79
2023-03-05T09:08:43.144Z,50.59
2023-03-05T09:11:11.659Z,49.28
2023-03-05T09:13:38.916Z,47.13
2023-03-05T09:16:10.889Z,43.84
2023-03-05T09:18:41.550Z,44.70
2023-03-05T09:21:10.778Z,44.35
2023-03-05T09:23:38.238Z,44.46
2023-03-05T09:26:06.668Z,44.68
2023-03-05T09:28:39.810Z,45.25
2023-03-05T09:31:08.104Z,45.70
2023-03-05T09:33:35.682Z,45.97
2023-03-05T09:36:03.010Z,46.33
2023-03-05T09:38:30.253Z,46.29
2023-03-05T09:40:59.105Z,46.18
2023-03-05T09:43:34.871Z,46.23
2023-03-05T09:46:18.875Z,45.94
2023-03-05T09:48:52.018Z,46.10
2023-03-05T09:51:27.825Z,45.89
2023-03-05T09:54:03.003Z,45.54
2023-03-05T09:56:35.615Z,45.35
2023-03-05T09:59:17.038Z,45.52
2023-03-05T10:01:43.857Z,45.44
2023-03-05T10:04:15.184Z,45.25
2023-03-05T10:07:04.502Z,45.33
2023-03-05T10:09:45.314Z,45.88
2023-03-05T10:12:42.105Z,46.56
2023-03-05T10:15:26.817Z,46.80
2023-03-05T10:17:58.697Z,46.70
2023-03-05T10:20:26.974Z,46.75
2023-03-05T10:23:29.919Z,47.00
2023-03-05T10:26:24.973Z,46.76
2023-03-05T10:29:08.392Z,46.76
2023-03-05T10:31:35.597Z,46.29
2023-03-05T10:34:14.784Z,46.17
2023-03-05T10:37:02.851Z,46.00
2023-03-05T10:39:49.034Z,44.44
2023-03-05T10:42:42.915Z,43.33
2023-03-05T10:45:28.533Z,42.81
2023-03-05T10:48:01.934Z,43.29
2023-03-05T10:50:38.338Z,43.38
2023-03-05T10:53:24.388Z,42.69
2023-03-05T10:55:58.165Z,42.44
2023-03-05T10:58:26.720Z,42.02
2023-03-05T11:01:12.330Z,41.02
2023-03-05T11:03:56.338Z,43.45
2023-03-05T11:06:26.424Z,42.10
2023-03-05T11:08:53.402Z,39.88
2023-03-05T11:11:21.415Z,40.22
2023-03-05T11:13:55.723Z,40.10
2023-03-05T11:16:28.106Z,40.28
2023-03-05T11:19:15.050Z,39.90
2023-03-05T11:21:43.764Z,39.69
2023-03-05T11:24:18.923Z,40.00
2023-03-05T11:26:56.316Z,40.94
2023-03-05T11:29:26.507Z,43.23
2023-03-05T11:31:54.221Z,45.32
2023-03-05T11:34:39.416Z,46.55
2023-03-05T11:37:06.603Z,46.75
2023-03-05T11:39:36.219Z,46.65
2023-03-05T11:42:10.640Z,46.76
2023-03-05T11:44:43.672Z,46.56
2023-03-05T11:47:19.549Z,46.66
2023-03-05T11:49:51.917Z,46.27
2023-03-05T11:52:27.823Z,45.49
2023-03-05T11:54:58.057Z,45.49
2023-03-05T11:57:24.931Z,45.51
2023-03-05T11:59:52.388Z,45.94
2023-03-05T12:02:26.143Z,46.27
2023-03-05T12:04:53.089Z,46.80
2023-03-05T12:07:27.501Z,47.06
2023-03-05T12:09:55.598Z,46.69
2023-03-05T12:12:22.728Z,46.41
2023-03-05T12:15:28.625Z,46.33
2023-03-05T12:18:04.886Z,46.21
2023-03-05T12:20:49.033Z,46.19
2023-03-05T12:23:18.798Z,45.26
2023-03-05T12:25:48.884Z,45.39
2023-03-05T12:28:17.519Z,45.53
2023-03-05T12:30:44.782Z,45.52
2023-03-05T12:33:41.250Z,45.53
2023-03-05T12:36:17.368Z,45.98
2023-03-05T12:38:56.418Z,45.85
2023-03-05T12:41:24.490Z,45.81
2023-03-05T12:44:07.221Z,46.03
2023-03-05T12:46:37.714Z,45.75
2023-03-05T12:49:17.387Z,45.22
2023-03-05T12:51:55.341Z,44.81
2023-03-05T12:54:42.052Z,44.95
2023-03-05T12:57:18.409Z,44.67
2023-03-05T12:59:45.944Z,44.24
2023-03-05T13:02:40.574Z,44.32
2023-03-05T13:05:17.284Z,44.63
2023-03-05T13:07:44.218Z,45.42
2023-03-05T13:10:22.530Z,45.56
2023-03-05T13:12:52.652Z,45.76
2023-03-05T13:15:19.676Z,45.41
2023-03-05T13:17:52.546Z,44.70
2023-03-05T13:20:33.520Z,44.88
2023-03-05T13:23:14.783Z,45.02
2023-03-05T13:25:42.882Z,44.43
2023-03-05T13:28:12.360Z,44.33
2023-03-05T13:30:39.332Z,44.40
2023-03-05T13:33:15.751Z,44.61
2023-03-05T13:35:46.873Z,44.17
2023-03-05T13:38:34.242Z,44.01
2023-03-05T13:41:22.420Z,44.31
2023-03-05T13:43:53.512Z,44.38
2023-03-05T13:46:27.545Z,44.70
2023-03-05T13:48:54.900Z,44.11
2023-03-05T13:51:22.036Z,43.82
2023-03-05T13:53:49.309Z,43.68
2023-03-05T13:56:18.300Z,43.45
2023-03-05T13:58:48.667Z,43.79
2023-03-05T14:01:36.017Z,44.46
2023-03-05T14:04:06.908Z,44.16
2023-03-05T14:06:35.784Z,44.55
2023-03-05T14:09:08.563Z,44.92
2023-03-05T14:11:42.566Z,45.66
2023-03-05T14:14:20.188Z,45.89
2023-03-05T14:16:50.817Z,45.72
2023-03-05T14:19:47.670Z,45.59
2023-03-05T14:22:32.776Z,45.13
2023-03-05T14:24:59.888Z,45.55
2023-03-05T14:27:27.627Z,46.70
2023-03-05T14:30:05.935Z,47.23
2023-03-05T14:32:35.214Z,48.01
2023-03-05T14:35:04.597Z,48.46
2023-03-05T14:37:37.347Z,48.90
2023-03-05T14:40:05.831Z,49.32
2023-03-05T14:42:55.509Z,49.64
2023-03-05T14:45:24.942Z,49.54
2023-03-05T14:47:54.208Z,49.17
2023-03-05T14:50:23.258Z,48.95
2023-03-05T14:52:59.012Z,48.96
2023-03-05T14:55:27.674Z,48.93
2023-03-05T14:58:10.599Z,49.13
2023-03-05T15:00:37.790Z,49.07
2023-03-05T15:03:04.906Z,49.20
2023-03-05T15:05:36.678Z,49.34
2023-03-05T15:08:04.990Z,49.05
2023-03-05T15:10:33.611Z,48.90
2023-03-05T15:13:01.608Z,49.12
2023-03-05T15:15:28.584Z,49.39
2023-03-05T15:18:01.453Z,49.37
2023-03-05T15:20:29.489Z,49.53
2023-03-05T15:22:56.326Z,49.75
2023-03-05T15:25:23.678Z,49.79
2023-03-05T15:27:50.701Z,50.02
2023-03-05T15:30:27.327Z,50.03
2023-03-05T15:32:55.255Z,50.35
2023-03-05T15:35:22.445Z,50.90
2023-03-05T15:37:49.603Z,50.88
2023-03-05T15:40:17.236Z,51.02
2023-03-05T15:42:44.459Z,51.47
2023-03-05T15:45:11.477Z,51.84
2023-03-05T15:47:38.639Z,52.00
2023-03-05T15:50:07.109Z,52.33
2023-03-05T15:52:34.211Z,52.63
2023-03-05T15:55:01.609Z,52.93
2023-03-05T15:57:29.178Z,53.36
2023-03-05T15:59:56.104Z,53.15
2023-03-05T16:02:24.530Z,53.03
2023-03-05T16:04:51.511Z,52.65
2023-03-05T16:07:23.592Z,53.29
2023-03-05T16:09:51.406Z,52.58
2023-03-05T16:12:21.203Z,52.51
2023-03-05T16:14:52.140Z,51.51
2023-03-05T16:17:19.723Z,50.98
2023-03-05T16:19:47.953Z,49.34
2023-03-05T16:22:15.018Z,48.74
2023-03-05T16:24:43.868Z,46.97
2023-03-05T16:27:11.599Z,45.76
2023-03-05T16:29:39.266Z,45.52
2023-03-05T16:32:10.971Z,45.30
2023-03-05T16:34:38.619Z,45.41
2023-03-05T16:37:06.473Z,45.11
2023-03-05T16:39:37.263Z,45.17
2023-03-05T16:42:05.136Z,45.24
2023-03-05T16:44:32.156Z,44.92
2023-03-05T16:46:59.709Z,44.75
2023-03-05T16:49:27.464Z,44.82
2023-03-05T16:51:54.515Z,44.88
2023-03-05T16:54:21.622Z,45.00
2023-03-05T16:56:48.554Z,45.20
2023-03-05T16:59:15.688Z,45.28
2023-03-05T17:01:42.924Z,45.44
2023-03-05T17:04:10.047Z,45.03
2023-03-05T17:06:37.695Z,45.12
2023-03-05T17:09:04.919Z,45.16
2023-03-05T17:11:33.264Z,45.19
2023-03-05T17:14:03.602Z,45.44
2023-03-05T17:16:30.505Z,45.32
2023-03-05T17:19:00.941Z,45.32
2023-03-05T17:21:28.754Z,45.42
2023-03-05T17:23:56.254Z,45.40
2023-03-05T17:26:25.696Z,45.53
2023-03-05T17:28:54.424Z,45.59
2023-03-05T17:31:21.517Z,45.34
2023-03-05T17:33:48.622Z,45.39
2023-03-05T17:36:19.031Z,45.37
2023-03-05T17:38:47.085Z,45.28
2023-03-05T17:41:14.892Z,45.23
2023-03-05T17:43:41.930Z,45.09
2023-03-05T17:46:09.680Z,45.03
2023-03-05T17:48:38.563Z,45.21
2023-03-05T17:51:06.817Z,45.37
2023-03-05T17:53:34.684Z,45.45
2023-03-05T17:56:01.947Z,45.67
2023-03-05T17:58:29.299Z,45.72
2023-03-05T18:00:56.272Z,45.67
2023-03-05T18:03:23.303Z,45.42
2023-03-05T18:05:50.209Z,45.19
2023-03-05T18:08:18.513Z,45.01
2023-03-05T18:10:45.514Z,44.69
2023-03-05T18:13:12.520Z,44.87
2023-03-05T18:15:46.739Z,44.67
2023-03-05T18:18:17.312Z,44.55
2023-03-05T18:20:44.386Z,44.44
2023-03-05T18:23:12.027Z,44.51
2023-03-05T18:25:39.124Z,44.36
2023-03-05T18:28:11.095Z,44.21
2023-03-05T18:30:39.981Z,44.41
2023-03-05T18:33:07.628Z,44.34
2023-03-05T18:35:36.163Z,44.51
2023-03-05T18:38:03.173Z,44.58
2023-03-05T18:40:32.032Z,44.56
2023-03-05T18:43:00.213Z,44.69
2023-03-05T18:45:27.419Z,44.50
2023-03-05T18:47:56.111Z,44.53
2023-03-05T18:50:24.912Z,44.53
2023-03-05T18:52:52.452Z,44.48
2023-03-05T18:55:22.408Z,44.52
2023-03-05T18:57:49.955Z,44.27
2023-03-05T19:00:18.807Z,44.23
2023-03-05T19:02:46.118Z,44.43
2023-03-05T19:05:17.162Z,44.30
2023-03-05T19:07:46.945Z,44.13
2023-03-05T19:10:15.986Z,44.20
2023-03-05T19:13:23.685Z,44.13
2023-03-05T19:15:51.091Z,44.37
2023-03-05T19:18:28.431Z,44.38
2023-03-05T19:21:01.272Z,44.17
2023-03-05T19:23:28.527Z,44.23
2023-03-05T19:25:55.666Z,43.96
2023-03-05T19:28:22.768Z,43.80
2023-03-05T19:30:50.767Z,43.74
2023-03-05T19:33:24.167Z,43.45
2023-03-05T19:35:52.834Z,43.60
2023-03-05T19:38:20.072Z,43.44
2023-03-05T19:40:48.424Z,43.28
2023-03-05T19:43:17.208Z,43.17
2023-03-05T19:45:45.126Z,43.02
2023-03-05T19:48:12.366Z,42.90
2023-03-05T19:50:39.782Z,43.03
2023-03-05T19:53:07.307Z,42.95
2023-03-05T19:55:38.022Z,42.91
2023-03-05T19:58:07.052Z,43.06
2023-03-05T20:00:35.678Z,42.92
2023-03-05T20:03:02.996Z,42.91
2023-03-05T20:05:30.864Z,42.52
2023-03-05T20:07:58.517Z,42.70
2023-03-05T20:10:25.935Z,42.46
2023-03-05T20:12:54.502Z,42.53
2023-03-05T20:15:22.903Z,42.47
2023-03-05T20:17:52.145Z,42.51
2023-03-05T20:20:21.204Z,42.27
2023-03-05T20:22:48.188Z,42.21
2023-03-05T20:25:16.713Z,41.98
2023-03-05T20:27:43.669Z,42.02
2023-03-05T20:30:12.306Z,41.98
2023-03-05T20:32:40.395Z,42.08
2023-03-05T20:35:16.478Z,42.17
2023-03-05T20:38:22.403Z,42.02
2023-03-05T20:40:50.812Z,42.44
2023-03-05T20:43:17.942Z,42.52
2023-03-05T20:45:47.201Z,42.68
2023-03-05T20:48:15.036Z,42.82
2023-03-05T20:50:42.041Z,43.23
2023-03-05T20:53:10.322Z,42.98
2023-03-05T20:55:37.375Z,42.84
2023-03-05T20:58:05.308Z,42.78
2023-03-05T21:00:34.629Z,42.56
2023-03-05T21:03:01.616Z,42.54
2023-03-05T21:05:29.952Z,42.36
2023-03-05T21:07:57.728Z,42.30
2023-03-05T21:10:26.506Z,42.16
2023-03-05T21:12:54.101Z,42.56
2023-03-05T21:15:23.963Z,42.74
2023-03-05T21:17:53.292Z,42.29
2023-03-05T21:20:22.893Z,42.39
2023-03-05T21:22:49.765Z,42.45
2023-03-05T21:25:22.199Z,42.34
2023-03-05T21:28:06.771Z,42.44
2023-03-05T21:30:36.927Z,42.60
2023-03-05T21:33:08.919Z,43.25
2023-03-05T21:35:36.385Z,43.24
2023-03-05T21:38:04.160Z,43.95
2023-03-05T21:40:31.514Z,43.70
2023-03-05T21:42:58.572Z,43.82
2023-03-05T21:45:28.901Z,43.98
2023-03-05T21:47:58.097Z,44.29
2023-03-05T21:50:25.200Z,44.13
2023-03-05T21:52:53.429Z,44.30
2023-03-05T21:55:44.613Z,44.68
2023-03-05T21:58:20.545Z,44.83
2023-03-05T22:00:48.024Z,44.38
2023-03-05T22:03:14.906Z,44.60
2023-03-05T22:05:43.460Z,45.06
2023-03-05T22:08:10.727Z,45.01
2023-03-05T22:10:44.118Z,45.16
2023-03-05T22:13:11.621Z,45.06
2023-03-05T22:15:55.333Z,44.74
2023-03-05T22:18:24.901Z,43.85
2023-03-05T22:20:52.172Z,43.52
2023-03-05T22:23:21.511Z,43.52
2023-03-05T22:25:58.605Z,43.57
2023-03-05T22:28:25.861Z,43.70
2023-03-05T22:30:52.926Z,43.82
2023-03-05T22:33:22.637Z,43.87
2023-03-05T22:35:52.339Z,44.42
2023-03-05T22:38:19.953Z,44.74
2023-03-05T22:40:51.530Z,44.67
2023-03-05T22:43:19.314Z,44.66
2023-03-05T22:45:46.293Z,44.83
2023-03-05T22:48:15.411Z,44.99
2023-03-05T22:50:43.466Z,44.87
2023-03-05T22:53:11.592Z,44.97
2023-03-05T22:55:40.658Z,44.86
2023-03-05T22:58:08.757Z,44.47
2023-03-05T23:00:36.681Z,44.59
2023-03-05T23:03:04.533Z,44.83
2023-03-05T23:05:33.347Z,45.05
2023-03-05T23:08:00.792Z,45.20
2023-03-05T23:10:28.916Z,45.37
2023-03-05T23:12:58.117Z,45.27
2023-03-05T23:15:26.326Z,45.31
2023-03-05T23:17:53.424Z,45.16
2023-03-05T23:20:22.584Z,44.95
2023-03-05T23:22:52.248Z,44.91
2023-03-05T23:25:19.955Z,45.12
2023-03-05T23:27:47.179Z,45.32
2023-03-05T23:30:21.217Z,45.55
2023-03-05T23:32:50.900Z,45.87
2023-03-05T23:35:20.579Z,46.08
2023-03-05T23:37:48.890Z,46.12
2023-03-05T23:40:24.292Z,45.74
2023-03-05T23:42:51.552Z,45.59
2023-03-05T23:45:26.311Z,45.76
2023-03-05T23:47:55.160Z,45.47
2023-03-05T23:50:23.071Z,45.21
2023-03-05T23:52:51.073Z,45.06
2023-03-05T23:55:23.889Z,45.01
2023-03-05T23:57:52.510Z,45.02
